sensor_id;sensor_type;location;lat;lon;timestamp;P1;durP1;ratioP1;P2;durP2;ratioP2
73428;SDS011;61643;49.564;17.412;2022-08-19T00:00:27;8.60;;;5.93;;
73428;SDS011;61643;49.564;17.412;2022-08-19T00:02:53;7.80;;;5.38;;
73428;SDS011;61643;49.564;17.412;2022-08-19T00:05:20;9.15;;;5.55;;
73428;SDS011;61643;49.564;17.412;2022-08-19T00:07:47;8.30;;;5.85;;
73428;SDS011;61643;49.564;17.412;2022-08-19T00:10:13;9.15;;;5.72;;
73428;SDS011;61643;49.564;17.412;2022-08-19T00:12:42;6.70;;;5.30;;
73428;SDS011;61643;49.564;17.412;2022-08-19T00:15:08;9.73;;;5.75;;
73428;SDS011;61643;49.564;17.412;2022-08-19T00:17:39;9.73;;;6.03;;
73428;SDS011;61643;49.564;17.412;2022-08-19T00:20:07;10.20;;;5.53;;
73428;SDS011;61643;49.564;17.412;2022-08-19T00:22:33;9.82;;;5.70;;
73428;SDS011;61643;49.564;17.412;2022-08-19T00:24:59;11.00;;;5.93;;
73428;SDS011;61643;49.564;17.412;2022-08-19T00:27:24;8.83;;;6.33;;
73428;SDS011;61643;49.564;17.412;2022-08-19T00:29:50;8.32;;;5.82;;
73428;SDS011;61643;49.564;17.412;2022-08-19T00:32:15;9.30;;;6.20;;
73428;SDS011;61643;49.564;17.412;2022-08-19T00:34:41;7.88;;;6.38;;
73428;SDS011;61643;49.564;17.412;2022-08-19T00:37:06;7.20;;;5.70;;
73428;SDS011;61643;49.564;17.412;2022-08-19T00:39:32;12.20;;;6.43;;
73428;SDS011;61643;49.564;17.412;2022-08-19T00:41:57;8.90;;;6.17;;
73428;SDS011;61643;49.564;17.412;2022-08-19T00:44:24;9.88;;;6.43;;
73428;SDS011;61643;49.564;17.412;2022-08-19T00:46:53;7.60;;;6.00;;
73428;SDS011;61643;49.564;17.412;2022-08-19T00:49:26;8.77;;;5.88;;
73428;SDS011;61643;49.564;17.412;2022-08-19T00:54:22;8.88;;;5.60;;
73428;SDS011;61643;49.564;17.412;2022-08-19T00:56:48;8.10;;;5.82;;
73428;SDS011;61643;49.564;17.412;2022-08-19T00:59:15;8.35;;;5.60;;
73428;SDS011;61643;49.564;17.412;2022-08-19T01:01:42;7.90;;;5.53;;
73428;SDS011;61643;49.564;17.412;2022-08-19T01:04:09;8.85;;;5.65;;
73428;SDS011;61643;49.564;17.412;2022-08-19T01:06:38;8.88;;;5.80;;
73428;SDS011;61643;49.564;17.412;2022-08-19T01:09:06;8.82;;;5.90;;
73428;SDS011;61643;49.564;17.412;2022-08-19T01:11:33;7.00;;;6.18;;
73428;SDS011;61643;49.564;17.412;2022-08-19T01:14:01;9.32;;;6.28;;
73428;SDS011;61643;49.564;17.412;2022-08-19T01:16:28;8.20;;;5.90;;
73428;SDS011;61643;49.564;17.412;2022-08-19T01:18:55;10.30;;;5.63;;
73428;SDS011;61643;49.564;17.412;2022-08-19T01:24:05;8.27;;;5.80;;
73428;SDS011;61643;49.564;17.412;2022-08-19T01:26:31;6.97;;;5.68;;
73428;SDS011;61643;49.564;17.412;2022-08-19T01:29:02;8.32;;;5.80;;
73428;SDS011;61643;49.564;17.412;2022-08-19T01:31:29;10.00;;;6.17;;
73428;SDS011;61643;49.564;17.412;2022-08-19T01:33:57;9.27;;;6.10;;
73428;SDS011;61643;49.564;17.412;2022-08-19T01:36:24;9.75;;;5.82;;
73428;SDS011;61643;49.564;17.412;2022-08-19T01:38:53;7.90;;;5.28;;
73428;SDS011;61643;49.564;17.412;2022-08-19T01:41:19;9.15;;;5.63;;
73428;SDS011;61643;49.564;17.412;2022-08-19T01:43:45;7.53;;;5.43;;
73428;SDS011;61643;49.564;17.412;2022-08-19T01:46:11;8.70;;;5.93;;
73428;SDS011;61643;49.564;17.412;2022-08-19T01:48:38;8.18;;;5.95;;
73428;SDS011;61643;49.564;17.412;2022-08-19T01:51:05;8.63;;;5.63;;
73428;SDS011;61643;49.564;17.412;2022-08-19T01:53:32;9.68;;;6.03;;
73428;SDS011;61643;49.564;17.412;2022-08-19T01:55:58;7.72;;;5.57;;
73428;SDS011;61643;49.564;17.412;2022-08-19T01:58:24;7.10;;;5.95;;
73428;SDS011;61643;49.564;17.412;2022-08-19T02:00:55;7.22;;;5.40;;
73428;SDS011;61643;49.564;17.412;2022-08-19T02:03:21;7.78;;;5.75;;
73428;SDS011;61643;49.564;17.412;2022-08-19T02:05:47;8.27;;;5.63;;
73428;SDS011;61643;49.564;17.412;2022-08-19T02:08:18;8.45;;;5.50;;
73428;SDS011;61643;49.564;17.412;2022-08-19T02:10:43;9.70;;;6.27;;
73428;SDS011;61643;49.564;17.412;2022-08-19T02:13:09;9.67;;;6.17;;
73428;SDS011;61643;49.564;17.412;2022-08-19T02:15:35;9.15;;;5.70;;
73428;SDS011;61643;49.564;17.412;2022-08-19T02:18:01;11.20;;;6.10;;
73428;SDS011;61643;49.564;17.412;2022-08-19T02:20:26;8.30;;;5.73;;
73428;SDS011;61643;49.564;17.412;2022-08-19T02:22:52;9.17;;;5.80;;
73428;SDS011;61643;49.564;17.412;2022-08-19T02:25:17;6.93;;;5.90;;
73428;SDS011;61643;49.564;17.412;2022-08-19T02:27:42;8.80;;;5.50;;
73428;SDS011;61643;49.564;17.412;2022-08-19T02:30:10;11.87;;;5.97;;
73428;SDS011;61643;49.564;17.412;2022-08-19T02:32:38;9.82;;;5.88;;
73428;SDS011;61643;49.564;17.412;2022-08-19T02:35:04;9.77;;;5.85;;
73428;SDS011;61643;49.564;17.412;2022-08-19T02:37:30;9.93;;;6.43;;
73428;SDS011;61643;49.564;17.412;2022-08-19T02:40:14;7.68;;;5.82;;
73428;SDS011;61643;49.564;17.412;2022-08-19T02:42:40;7.97;;;6.40;;
73428;SDS011;61643;49.564;17.412;2022-08-19T02:45:06;12.20;;;5.82;;
73428;SDS011;61643;49.564;17.412;2022-08-19T02:47:32;10.18;;;5.72;;
73428;SDS011;61643;49.564;17.412;2022-08-19T02:50:00;7.93;;;6.05;;
73428;SDS011;61643;49.564;17.412;2022-08-19T02:52:26;9.90;;;6.15;;
73428;SDS011;61643;49.564;17.412;2022-08-19T02:54:53;10.85;;;6.35;;
73428;SDS011;61643;49.564;17.412;2022-08-19T02:57:21;8.70;;;6.30;;
73428;SDS011;61643;49.564;17.412;2022-08-19T02:59:47;8.68;;;6.72;;
73428;SDS011;61643;49.564;17.412;2022-08-19T03:02:13;10.73;;;6.32;;
73428;SDS011;61643;49.564;17.412;2022-08-19T03:04:38;9.05;;;6.45;;
73428;SDS011;61643;49.564;17.412;2022-08-19T03:07:04;10.50;;;6.20;;
73428;SDS011;61643;49.564;17.412;2022-08-19T03:09:29;10.25;;;6.75;;
73428;SDS011;61643;49.564;17.412;2022-08-19T03:11:55;8.55;;;6.40;;
73428;SDS011;61643;49.564;17.412;2022-08-19T03:14:20;8.73;;;6.15;;
73428;SDS011;61643;49.564;17.412;2022-08-19T03:16:50;9.93;;;6.20;;
73428;SDS011;61643;49.564;17.412;2022-08-19T03:19:18;10.70;;;6.60;;
73428;SDS011;61643;49.564;17.412;2022-08-19T03:21:46;7.80;;;6.40;;
73428;SDS011;61643;49.564;17.412;2022-08-19T03:24:12;9.52;;;6.90;;
73428;SDS011;61643;49.564;17.412;2022-08-19T03:26:43;11.98;;;6.80;;
73428;SDS011;61643;49.564;17.412;2022-08-19T03:29:13;8.52;;;6.40;;
73428;SDS011;61643;49.564;17.412;2022-08-19T03:31:39;9.52;;;6.22;;
73428;SDS011;61643;49.564;17.412;2022-08-19T03:34:07;11.52;;;6.22;;
73428;SDS011;61643;49.564;17.412;2022-08-19T03:36:33;8.73;;;5.93;;
73428;SDS011;61643;49.564;17.412;2022-08-19T03:38:59;10.82;;;6.50;;
73428;SDS011;61643;49.564;17.412;2022-08-19T03:41:33;9.10;;;6.53;;
73428;SDS011;61643;49.564;17.412;2022-08-19T03:44:02;11.27;;;6.43;;
73428;SDS011;61643;49.564;17.412;2022-08-19T03:46:30;8.15;;;6.38;;
73428;SDS011;61643;49.564;17.412;2022-08-19T03:51:25;8.65;;;6.07;;
73428;SDS011;61643;49.564;17.412;2022-08-19T03:53:53;9.65;;;6.32;;
73428;SDS011;61643;49.564;17.412;2022-08-19T03:56:20;9.75;;;6.45;;
73428;SDS011;61643;49.564;17.412;2022-08-19T03:58:46;9.82;;;6.40;;
73428;SDS011;61643;49.564;17.412;2022-08-19T04:01:14;10.82;;;7.00;;
73428;SDS011;61643;49.564;17.412;2022-08-19T04:03:42;9.82;;;6.60;;
73428;SDS011;61643;49.564;17.412;2022-08-19T04:06:12;11.45;;;6.72;;
73428;SDS011;61643;49.564;17.412;2022-08-19T04:08:39;10.85;;;6.43;;
73428;SDS011;61643;49.564;17.412;2022-08-19T04:11:06;11.15;;;6.43;;
73428;SDS011;61643;49.564;17.412;2022-08-19T04:13:33;8.15;;;6.50;;
73428;SDS011;61643;49.564;17.412;2022-08-19T04:15:59;9.48;;;6.78;;
73428;SDS011;61643;49.564;17.412;2022-08-19T04:18:24;11.07;;;6.25;;
73428;SDS011;61643;49.564;17.412;2022-08-19T04:20:50;9.48;;;6.72;;
73428;SDS011;61643;49.564;17.412;2022-08-19T04:23:15;10.25;;;6.75;;
73428;SDS011;61643;49.564;17.412;2022-08-19T04:25:42;8.07;;;6.50;;
73428;SDS011;61643;49.564;17.412;2022-08-19T04:28:09;10.90;;;6.75;;
73428;SDS011;61643;49.564;17.412;2022-08-19T04:30:38;10.60;;;6.60;;
73428;SDS011;61643;49.564;17.412;2022-08-19T04:33:09;9.85;;;6.40;;
73428;SDS011;61643;49.564;17.412;2022-08-19T04:35:42;10.60;;;6.68;;
73428;SDS011;61643;49.564;17.412;2022-08-19T04:38:10;10.02;;;6.07;;
73428;SDS011;61643;49.564;17.412;2022-08-19T04:40:40;9.70;;;6.15;;
73428;SDS011;61643;49.564;17.412;2022-08-19T04:43:25;12.85;;;6.80;;
73428;SDS011;61643;49.564;17.412;2022-08-19T04:45:51;10.52;;;6.18;;
73428;SDS011;61643;49.564;17.412;2022-08-19T04:48:16;10.80;;;6.43;;
73428;SDS011;61643;49.564;17.412;2022-08-19T04:50:54;10.27;;;6.05;;
73428;SDS011;61643;49.564;17.412;2022-08-19T04:53:30;8.48;;;5.93;;
73428;SDS011;61643;49.564;17.412;2022-08-19T04:55:58;11.25;;;5.60;;
73428;SDS011;61643;49.564;17.412;2022-08-19T04:58:26;10.20;;;6.03;;
73428;SDS011;61643;49.564;17.412;2022-08-19T05:00:52;11.90;;;5.97;;
73428;SDS011;61643;49.564;17.412;2022-08-19T05:03:19;7.40;;;5.53;;
73428;SDS011;61643;49.564;17.412;2022-08-19T05:05:45;9.05;;;5.55;;
73428;SDS011;61643;49.564;17.412;2022-08-19T05:08:13;7.55;;;5.53;;
73428;SDS011;61643;49.564;17.412;2022-08-19T05:10:44;10.57;;;5.60;;
73428;SDS011;61643;49.564;17.412;2022-08-19T05:13:11;8.35;;;5.68;;
73428;SDS011;61643;49.564;17.412;2022-08-19T05:15:36;7.47;;;5.63;;
73428;SDS011;61643;49.564;17.412;2022-08-19T05:18:01;9.57;;;6.00;;
73428;SDS011;61643;49.564;17.412;2022-08-19T05:20:45;15.13;;;6.55;;
73428;SDS011;61643;49.564;17.412;2022-08-19T05:23:29;10.73;;;6.00;;
73428;SDS011;61643;49.564;17.412;2022-08-19T05:25:55;9.80;;;6.80;;
73428;SDS011;61643;49.564;17.412;2022-08-19T05:28:20;9.73;;;6.70;;
73428;SDS011;61643;49.564;17.412;2022-08-19T05:30:46;11.35;;;6.32;;
73428;SDS011;61643;49.564;17.412;2022-08-19T05:33:13;10.65;;;6.18;;
73428;SDS011;61643;49.564;17.412;2022-08-19T05:35:38;12.07;;;6.60;;
73428;SDS011;61643;49.564;17.412;2022-08-19T05:38:06;9.25;;;6.35;;
73428;SDS011;61643;49.564;17.412;2022-08-19T05:40:39;9.15;;;5.90;;
73428;SDS011;61643;49.564;17.412;2022-08-19T05:43:05;12.98;;;6.07;;
73428;SDS011;61643;49.564;17.412;2022-08-19T05:45:32;11.00;;;6.43;;
73428;SDS011;61643;49.564;17.412;2022-08-19T05:48:03;8.65;;;6.47;;
73428;SDS011;61643;49.564;17.412;2022-08-19T05:50:28;8.68;;;6.03;;
73428;SDS011;61643;49.564;17.412;2022-08-19T05:52:54;10.93;;;6.35;;
73428;SDS011;61643;49.564;17.412;2022-08-19T05:55:19;11.43;;;5.95;;
73428;SDS011;61643;49.564;17.412;2022-08-19T05:57:46;13.10;;;6.45;;
73428;SDS011;61643;49.564;17.412;2022-08-19T06:00:12;11.18;;;6.18;;
73428;SDS011;61643;49.564;17.412;2022-08-19T06:02:38;8.38;;;6.55;;
73428;SDS011;61643;49.564;17.412;2022-08-19T06:05:04;10.52;;;6.45;;
73428;SDS011;61643;49.564;17.412;2022-08-19T06:07:38;12.27;;;6.30;;
73428;SDS011;61643;49.564;17.412;2022-08-19T06:10:05;9.90;;;6.22;;
73428;SDS011;61643;49.564;17.412;2022-08-19T06:12:32;8.60;;;7.00;;
73428;SDS011;61643;49.564;17.412;2022-08-19T06:15:00;11.18;;;6.10;;
73428;SDS011;61643;49.564;17.412;2022-08-19T06:17:28;14.00;;;6.00;;
73428;SDS011;61643;49.564;17.412;2022-08-19T06:19:54;9.73;;;7.05;;
73428;SDS011;61643;49.564;17.412;2022-08-19T06:22:20;12.60;;;6.88;;
73428;SDS011;61643;49.564;17.412;2022-08-19T06:24:46;12.52;;;6.63;;
73428;SDS011;61643;49.564;17.412;2022-08-19T06:27:11;14.50;;;8.15;;
73428;SDS011;61643;49.564;17.412;2022-08-19T06:29:37;13.10;;;7.60;;
73428;SDS011;61643;49.564;17.412;2022-08-19T06:32:02;10.00;;;6.97;;
73428;SDS011;61643;49.564;17.412;2022-08-19T06:34:29;10.05;;;7.35;;
73428;SDS011;61643;49.564;17.412;2022-08-19T06:36:58;12.15;;;6.55;;
73428;SDS011;61643;49.564;17.412;2022-08-19T06:39:26;13.45;;;6.82;;
73428;SDS011;61643;49.564;17.412;2022-08-19T06:41:58;13.32;;;6.70;;
73428;SDS011;61643;49.564;17.412;2022-08-19T06:44:26;15.30;;;7.03;;
73428;SDS011;61643;49.564;17.412;2022-08-19T06:46:53;11.20;;;7.80;;
73428;SDS011;61643;49.564;17.412;2022-08-19T06:49:20;12.23;;;7.35;;
73428;SDS011;61643;49.564;17.412;2022-08-19T06:51:47;11.27;;;7.47;;
73428;SDS011;61643;49.564;17.412;2022-08-19T06:54:14;12.73;;;6.88;;
73428;SDS011;61643;49.564;17.412;2022-08-19T06:56:41;13.45;;;7.35;;
73428;SDS011;61643;49.564;17.412;2022-08-19T07:01:34;13.07;;;7.40;;
73428;SDS011;61643;49.564;17.412;2022-08-19T07:04:02;9.00;;;7.25;;
73428;SDS011;61643;49.564;17.412;2022-08-19T07:06:28;13.43;;;7.25;;
73428;SDS011;61643;49.564;17.412;2022-08-19T07:08:56;9.52;;;6.97;;
73428;SDS011;61643;49.564;17.412;2022-08-19T07:11:23;11.13;;;7.18;;
73428;SDS011;61643;49.564;17.412;2022-08-19T07:13:49;10.43;;;7.22;;
73428;SDS011;61643;49.564;17.412;2022-08-19T07:16:16;11.30;;;7.63;;
73428;SDS011;61643;49.564;17.412;2022-08-19T07:18:44;11.65;;;7.07;;
73428;SDS011;61643;49.564;17.412;2022-08-19T07:21:15;11.55;;;6.97;;
73428;SDS011;61643;49.564;17.412;2022-08-19T07:23:42;11.07;;;6.88;;
73428;SDS011;61643;49.564;17.412;2022-08-19T07:26:10;9.30;;;6.57;;
73428;SDS011;61643;49.564;17.412;2022-08-19T07:28:35;11.77;;;7.25;;
73428;SDS011;61643;49.564;17.412;2022-08-19T07:31:04;11.30;;;6.97;;
73428;SDS011;61643;49.564;17.412;2022-08-19T07:33:31;10.35;;;6.65;;
73428;SDS011;61643;49.564;17.412;2022-08-19T07:35:57;10.48;;;6.97;;
73428;SDS011;61643;49.564;17.412;2022-08-19T07:38:23;7.88;;;6.43;;
73428;SDS011;61643;49.564;17.412;2022-08-19T07:40:48;11.75;;;7.50;;
73428;SDS011;61643;49.564;17.412;2022-08-19T07:43:16;8.75;;;6.78;;
73428;SDS011;61643;49.564;17.412;2022-08-19T07:45:42;10.48;;;7.30;;
73428;SDS011;61643;49.564;17.412;2022-08-19T07:48:08;12.68;;;7.07;;
73428;SDS011;61643;49.564;17.412;2022-08-19T07:50:33;12.33;;;6.83;;
73428;SDS011;61643;49.564;17.412;2022-08-19T07:52:58;11.27;;;6.33;;
73428;SDS011;61643;49.564;17.412;2022-08-19T07:55:24;17.03;;;6.57;;
73428;SDS011;61643;49.564;17.412;2022-08-19T07:57:50;17.33;;;6.70;;
73428;SDS011;61643;49.564;17.412;2022-08-19T08:00:17;16.02;;;7.30;;
73428;SDS011;61643;49.564;17.412;2022-08-19T08:02:43;15.40;;;6.80;;
73428;SDS011;61643;49.564;17.412;2022-08-19T08:05:09;13.82;;;6.80;;
73428;SDS011;61643;49.564;17.412;2022-08-19T08:07:53;10.30;;;6.25;;
73428;SDS011;61643;49.564;17.412;2022-08-19T08:10:37;13.02;;;6.68;;
73428;SDS011;61643;49.564;17.412;2022-08-19T08:13:03;13.77;;;6.90;;
73428;SDS011;61643;49.564;17.412;2022-08-19T08:15:30;9.02;;;6.22;;
73428;SDS011;61643;49.564;17.412;2022-08-19T08:17:56;14.45;;;6.93;;
73428;SDS011;61643;49.564;17.412;2022-08-19T08:20:22;15.15;;;6.63;;
73428;SDS011;61643;49.564;17.412;2022-08-19T08:22:49;11.80;;;6.82;;
73428;SDS011;61643;49.564;17.412;2022-08-19T08:25:33;10.05;;;6.68;;
73428;SDS011;61643;49.564;17.412;2022-08-19T08:28:00;11.57;;;6.35;;
73428;SDS011;61643;49.564;17.412;2022-08-19T08:30:27;10.40;;;6.63;;
73428;SDS011;61643;49.564;17.412;2022-08-19T08:32:55;11.23;;;6.50;;
73428;SDS011;61643;49.564;17.412;2022-08-19T08:35:22;11.57;;;6.60;;
73428;SDS011;61643;49.564;17.412;2022-08-19T08:37:49;13.60;;;6.90;;
73428;SDS011;61643;49.564;17.412;2022-08-19T08:40:25;10.93;;;6.25;;
73428;SDS011;61643;49.564;17.412;2022-08-19T08:43:06;11.55;;;7.05;;
73428;SDS011;61643;49.564;17.412;2022-08-19T08:45:36;12.68;;;7.30;;
73428;SDS011;61643;49.564;17.412;2022-08-19T08:48:18;10.65;;;7.05;;
73428;SDS011;61643;49.564;17.412;2022-08-19T08:50:49;10.07;;;7.00;;
73428;SDS011;61643;49.564;17.412;2022-08-19T08:53:18;11.25;;;6.65;;
73428;SDS011;61643;49.564;17.412;2022-08-19T08:55:45;14.85;;;7.35;;
73428;SDS011;61643;49.564;17.412;2022-08-19T08:58:16;11.52;;;6.95;;
73428;SDS011;61643;49.564;17.412;2022-08-19T09:01:08;17.73;;;7.25;;
73428;SDS011;61643;49.564;17.412;2022-08-19T09:03:36;12.10;;;7.35;;
73428;SDS011;61643;49.564;17.412;2022-08-19T09:06:06;9.75;;;6.68;;
73428;SDS011;61643;49.564;17.412;2022-08-19T09:08:49;10.13;;;6.53;;
73428;SDS011;61643;49.564;17.412;2022-08-19T09:12:03;10.88;;;6.68;;
73428;SDS011;61643;49.564;17.412;2022-08-19T09:17:13;10.50;;;6.30;;
73428;SDS011;61643;49.564;17.412;2022-08-19T09:19:49;11.88;;;7.22;;
73428;SDS011;61643;49.564;17.412;2022-08-19T09:22:23;11.52;;;6.93;;
73428;SDS011;61643;49.564;17.412;2022-08-19T09:24:49;10.90;;;6.70;;
73428;SDS011;61643;49.564;17.412;2022-08-19T09:27:17;9.93;;;6.90;;
73428;SDS011;61643;49.564;17.412;2022-08-19T09:29:43;11.98;;;6.93;;
73428;SDS011;61643;49.564;17.412;2022-08-19T09:32:09;10.30;;;6.70;;
73428;SDS011;61643;49.564;17.412;2022-08-19T09:34:34;10.97;;;6.63;;
73428;SDS011;61643;49.564;17.412;2022-08-19T09:37:00;10.45;;;7.05;;
73428;SDS011;61643;49.564;17.412;2022-08-19T09:39:26;11.80;;;7.18;;
73428;SDS011;61643;49.564;17.412;2022-08-19T09:41:51;10.48;;;6.93;;
73428;SDS011;61643;49.564;17.412;2022-08-19T09:44:17;13.45;;;7.28;;
73428;SDS011;61643;49.564;17.412;2022-08-19T09:46:45;11.55;;;6.50;;
73428;SDS011;61643;49.564;17.412;2022-08-19T09:49:14;13.60;;;7.53;;
73428;SDS011;61643;49.564;17.412;2022-08-19T09:51:41;12.38;;;6.95;;
73428;SDS011;61643;49.564;17.412;2022-08-19T09:54:07;15.95;;;8.13;;
73428;SDS011;61643;49.564;17.412;2022-08-19T09:56:33;11.98;;;6.95;;
73428;SDS011;61643;49.564;17.412;2022-08-19T09:58:59;12.03;;;6.50;;
73428;SDS011;61643;49.564;17.412;2022-08-19T10:01:26;8.80;;;7.18;;
73428;SDS011;61643;49.564;17.412;2022-08-19T10:03:54;10.48;;;7.00;;
73428;SDS011;61643;49.564;17.412;2022-08-19T10:06:22;10.68;;;6.68;;
73428;SDS011;61643;49.564;17.412;2022-08-19T10:08:51;9.70;;;7.30;;
73428;SDS011;61643;49.564;17.412;2022-08-19T10:11:18;8.98;;;6.85;;
73428;SDS011;61643;49.564;17.412;2022-08-19T10:13:45;13.65;;;7.65;;
73428;SDS011;61643;49.564;17.412;2022-08-19T10:16:12;11.18;;;6.60;;
73428;SDS011;61643;49.564;17.412;2022-08-19T10:18:40;10.98;;;6.38;;
73428;SDS011;61643;49.564;17.412;2022-08-19T10:21:11;17.60;;;7.35;;
73428;SDS011;61643;49.564;17.412;2022-08-19T10:23:37;8.88;;;7.07;;
73428;SDS011;61643;49.564;17.412;2022-08-19T10:26:09;11.07;;;6.68;;
73428;SDS011;61643;49.564;17.412;2022-08-19T10:28:35;8.27;;;6.55;;
73428;SDS011;61643;49.564;17.412;2022-08-19T10:31:08;11.88;;;6.35;;
73428;SDS011;61643;49.564;17.412;2022-08-19T10:33:36;10.13;;;6.47;;
73428;SDS011;61643;49.564;17.412;2022-08-19T10:36:07;9.93;;;7.28;;
73428;SDS011;61643;49.564;17.412;2022-08-19T10:38:35;11.98;;;6.75;;
73428;SDS011;61643;49.564;17.412;2022-08-19T10:41:12;8.95;;;6.55;;
73428;SDS011;61643;49.564;17.412;2022-08-19T10:43:40;10.30;;;6.55;;
73428;SDS011;61643;49.564;17.412;2022-08-19T10:46:10;13.35;;;7.03;;
73428;SDS011;61643;49.564;17.412;2022-08-19T10:48:37;8.63;;;6.25;;
73428;SDS011;61643;49.564;17.412;2022-08-19T10:51:03;9.53;;;6.47;;
73428;SDS011;61643;49.564;17.412;2022-08-19T10:53:47;11.38;;;6.63;;
73428;SDS011;61643;49.564;17.412;2022-08-19T10:56:14;11.90;;;6.97;;
73428;SDS011;61643;49.564;17.412;2022-08-19T10:58:58;11.68;;;6.15;;
73428;SDS011;61643;49.564;17.412;2022-08-19T11:01:27;12.18;;;7.38;;
73428;SDS011;61643;49.564;17.412;2022-08-19T11:03:54;9.45;;;6.82;;
73428;SDS011;61643;49.564;17.412;2022-08-19T11:08:49;10.23;;;6.82;;
73428;SDS011;61643;49.564;17.412;2022-08-19T11:11:15;10.55;;;6.65;;
73428;SDS011;61643;49.564;17.412;2022-08-19T11:13:42;10.43;;;6.82;;
73428;SDS011;61643;49.564;17.412;2022-08-19T11:16:13;10.63;;;6.82;;
73428;SDS011;61643;49.564;17.412;2022-08-19T11:18:44;10.52;;;6.38;;
73428;SDS011;61643;49.564;17.412;2022-08-19T11:21:32;11.10;;;6.43;;
73428;SDS011;61643;49.564;17.412;2022-08-19T11:24:06;8.88;;;6.22;;
73428;SDS011;61643;49.564;17.412;2022-08-19T11:26:34;9.85;;;6.65;;
73428;SDS011;61643;49.564;17.412;2022-08-19T11:29:00;11.40;;;6.47;;
73428;SDS011;61643;49.564;17.412;2022-08-19T11:31:29;8.77;;;5.78;;
73428;SDS011;61643;49.564;17.412;2022-08-19T11:34:00;8.95;;;6.63;;
73428;SDS011;61643;49.564;17.412;2022-08-19T11:36:28;9.25;;;6.22;;
73428;SDS011;61643;49.564;17.412;2022-08-19T11:38:54;8.35;;;6.18;;
73428;SDS011;61643;49.564;17.412;2022-08-19T11:41:20;8.82;;;6.32;;
73428;SDS011;61643;49.564;17.412;2022-08-19T11:43:51;11.10;;;6.03;;
73428;SDS011;61643;49.564;17.412;2022-08-19T11:46:19;13.02;;;6.93;;
73428;SDS011;61643;49.564;17.412;2022-08-19T11:48:45;9.90;;;6.60;;
73428;SDS011;61643;49.564;17.412;2022-08-19T11:51:14;7.65;;;5.95;;
73428;SDS011;61643;49.564;17.412;2022-08-19T11:53:43;10.48;;;6.05;;
73428;SDS011;61643;49.564;17.412;2022-08-19T11:56:09;10.27;;;6.88;;
73428;SDS011;61643;49.564;17.412;2022-08-19T11:58:35;8.50;;;5.63;;
73428;SDS011;61643;49.564;17.412;2022-08-19T12:01:04;8.25;;;5.88;;
73428;SDS011;61643;49.564;17.412;2022-08-19T12:03:31;12.50;;;6.28;;
73428;SDS011;61643;49.564;17.412;2022-08-19T12:05:57;10.23;;;6.00;;
73428;SDS011;61643;49.564;17.412;2022-08-19T12:08:22;7.77;;;5.07;;
73428;SDS011;61643;49.564;17.412;2022-08-19T12:10:48;10.07;;;5.85;;
73428;SDS011;61643;49.564;17.412;2022-08-19T12:13:13;7.97;;;5.63;;
73428;SDS011;61643;49.564;17.412;2022-08-19T12:15:44;12.90;;;5.30;;
73428;SDS011;61643;49.564;17.412;2022-08-19T12:18:11;8.20;;;4.90;;
73428;SDS011;61643;49.564;17.412;2022-08-19T12:20:39;8.57;;;4.97;;
73428;SDS011;61643;49.564;17.412;2022-08-19T12:23:06;7.43;;;5.35;;
73428;SDS011;61643;49.564;17.412;2022-08-19T12:25:34;7.22;;;4.93;;
73428;SDS011;61643;49.564;17.412;2022-08-19T12:28:00;10.27;;;4.93;;
73428;SDS011;61643;49.564;17.412;2022-08-19T12:30:26;10.52;;;5.10;;
73428;SDS011;61643;49.564;17.412;2022-08-19T12:32:51;10.38;;;5.57;;
73428;SDS011;61643;49.564;17.412;2022-08-19T12:35:17;8.85;;;5.00;;
73428;SDS011;61643;49.564;17.412;2022-08-19T12:37:45;8.45;;;5.00;;
73428;SDS011;61643;49.564;17.412;2022-08-19T12:40:12;6.25;;;5.05;;
73428;SDS011;61643;49.564;17.412;2022-08-19T12:42:38;8.77;;;5.13;;
73428;SDS011;61643;49.564;17.412;2022-08-19T12:45:07;9.20;;;5.05;;
73428;SDS011;61643;49.564;17.412;2022-08-19T12:47:36;10.15;;;5.50;;
73428;SDS011;61643;49.564;17.412;2022-08-19T12:50:02;9.82;;;5.18;;
73428;SDS011;61643;49.564;17.412;2022-08-19T12:52:29;11.25;;;5.05;;
73428;SDS011;61643;49.564;17.412;2022-08-19T12:54:55;8.30;;;4.83;;
73428;SDS011;61643;49.564;17.412;2022-08-19T12:57:25;7.82;;;5.22;;
73428;SDS011;61643;49.564;17.412;2022-08-19T12:59:52;11.40;;;5.35;;
73428;SDS011;61643;49.564;17.412;2022-08-19T13:02:18;11.60;;;4.70;;
73428;SDS011;61643;49.564;17.412;2022-08-19T13:04:44;10.02;;;5.07;;
73428;SDS011;61643;49.564;17.412;2022-08-19T13:07:10;9.02;;;4.82;;
73428;SDS011;61643;49.564;17.412;2022-08-19T13:09:36;10.63;;;5.05;;
73428;SDS011;61643;49.564;17.412;2022-08-19T13:12:02;9.27;;;5.00;;
73428;SDS011;61643;49.564;17.412;2022-08-19T13:14:32;5.75;;;4.55;;
73428;SDS011;61643;49.564;17.412;2022-08-19T13:16:58;8.85;;;4.72;;
73428;SDS011;61643;49.564;17.412;2022-08-19T13:19:23;8.27;;;4.40;;
73428;SDS011;61643;49.564;17.412;2022-08-19T13:21:50;15.88;;;4.72;;
73428;SDS011;61643;49.564;17.412;2022-08-19T13:24:15;9.13;;;4.78;;
73428;SDS011;61643;49.564;17.412;2022-08-19T13:26:42;6.53;;;4.43;;
73428;SDS011;61643;49.564;17.412;2022-08-19T13:29:07;9.20;;;4.47;;
73428;SDS011;61643;49.564;17.412;2022-08-19T13:31:51;10.32;;;5.10;;
73428;SDS011;61643;49.564;17.412;2022-08-19T13:34:35;7.72;;;4.55;;
73428;SDS011;61643;49.564;17.412;2022-08-19T13:37:02;13.88;;;5.18;;
73428;SDS011;61643;49.564;17.412;2022-08-19T13:39:29;10.02;;;4.93;;
73428;SDS011;61643;49.564;17.412;2022-08-19T13:41:57;7.72;;;4.57;;
73428;SDS011;61643;49.564;17.412;2022-08-19T13:44:23;9.27;;;4.80;;
73428;SDS011;61643;49.564;17.412;2022-08-19T13:46:49;7.40;;;4.90;;
73428;SDS011;61643;49.564;17.412;2022-08-19T13:51:42;9.18;;;4.57;;
73428;SDS011;61643;49.564;17.412;2022-08-19T13:54:09;8.50;;;4.75;;
73428;SDS011;61643;49.564;17.412;2022-08-19T13:59:05;11.05;;;5.72;;
73428;SDS011;61643;49.564;17.412;2022-08-19T14:01:31;9.98;;;5.10;;
73428;SDS011;61643;49.564;17.412;2022-08-19T14:03:56;14.07;;;5.35;;
73428;SDS011;61643;49.564;17.412;2022-08-19T14:06:21;8.10;;;5.00;;
73428;SDS011;61643;49.564;17.412;2022-08-19T14:08:47;7.47;;;5.13;;
73428;SDS011;61643;49.564;17.412;2022-08-19T14:11:13;11.68;;;4.90;;
73428;SDS011;61643;49.564;17.412;2022-08-19T14:13:39;9.13;;;4.85;;
73428;SDS011;61643;49.564;17.412;2022-08-19T14:16:12;10.07;;;5.18;;
73428;SDS011;61643;49.564;17.412;2022-08-19T14:18:38;10.57;;;4.70;;
73428;SDS011;61643;49.564;17.412;2022-08-19T14:21:05;9.32;;;5.10;;
73428;SDS011;61643;49.564;17.412;2022-08-19T14:23:32;9.30;;;5.18;;
73428;SDS011;61643;49.564;17.412;2022-08-19T14:26:09;8.30;;;4.85;;
73428;SDS011;61643;49.564;17.412;2022-08-19T14:28:39;9.60;;;5.53;;
73428;SDS011;61643;49.564;17.412;2022-08-19T14:31:06;11.80;;;5.10;;
73428;SDS011;61643;49.564;17.412;2022-08-19T14:33:33;13.63;;;4.75;;
73428;SDS011;61643;49.564;17.412;2022-08-19T14:35:58;10.02;;;4.65;;
73428;SDS011;61643;49.564;17.412;2022-08-19T14:38:25;7.45;;;4.63;;
73428;SDS011;61643;49.564;17.412;2022-08-19T14:40:51;13.30;;;5.30;;
73428;SDS011;61643;49.564;17.412;2022-08-19T14:43:17;13.82;;;4.90;;
73428;SDS011;61643;49.564;17.412;2022-08-19T14:45:42;14.38;;;5.78;;
73428;SDS011;61643;49.564;17.412;2022-08-19T14:48:08;10.50;;;5.65;;
73428;SDS011;61643;49.564;17.412;2022-08-19T14:50:35;9.43;;;5.20;;
73428;SDS011;61643;49.564;17.412;2022-08-19T14:53:06;8.05;;;4.72;;